createdAt,value
2022-10-18T00:00:32.608Z,1.45
2022-10-18T00:02:59.097Z,1.45
2022-10-18T00:05:25.622Z,0.73
2022-10-18T00:07:52.044Z,0.25
2022-10-18T00:10:18.712Z,2.13
2022-10-18T00:15:11.932Z,5.47
2022-10-18T00:17:38.959Z,2.13
2022-10-18T00:20:06.045Z,3.83
2022-10-18T00:22:34.403Z,1.77
2022-10-18T00:25:00.853Z,2.58
2022-10-18T00:27:29.064Z,0.68
2022-10-18T00:29:55.549Z,0.65
2022-10-18T00:32:22.158Z,0.60
2022-10-18T00:34:48.712Z,2.25
2022-10-18T00:37:15.152Z,0.85
2022-10-18T00:39:41.798Z,0.88
2022-10-18T00:42:10.640Z,2.90
2022-10-18T00:44:38.581Z,0.57
2022-10-18T00:47:07.832Z,2.75
2022-10-18T00:49:35.704Z,1.48
2022-10-18T00:52:02.304Z,2.35
2022-10-18T00:54:30.140Z,1.65
2022-10-18T00:56:56.691Z,2.28
2022-10-18T00:59:23.617Z,1.70
2022-10-18T01:01:50.426Z,0.95
2022-10-18T01:04:17.913Z,0.45
2022-10-18T01:06:51.685Z,2.75
2022-10-18T01:12:07.855Z,2.10
2022-10-18T01:14:39.738Z,2.17
2022-10-18T01:17:13.269Z,0.40
2022-10-18T01:19:52.849Z,1.80
2022-10-18T01:22:19.289Z,1.92
2022-10-18T01:24:50.948Z,1.95
2022-10-18T01:27:20.201Z,2.17
2022-10-18T01:29:58.952Z,2.20
2022-10-18T01:32:27.467Z,1.75
2022-10-18T01:34:58.202Z,2.83
2022-10-18T01:37:25.432Z,0.28
2022-10-18T01:39:54.299Z,2.20
2022-10-18T01:42:21.455Z,2.28
2022-10-18T01:44:48.681Z,1.38
2022-10-18T01:47:15.723Z,2.85
2022-10-18T01:49:42.431Z,3.67
2022-10-18T01:52:16.275Z,1.65
2022-10-18T01:54:45.251Z,3.22
2022-10-18T01:57:21.464Z,0.52
2022-10-18T01:59:47.984Z,2.67
2022-10-18T02:02:14.491Z,2.15
2022-10-18T02:04:59.350Z,3.00
2022-10-18T02:07:48.981Z,3.00
2022-10-18T02:10:42.666Z,2.72
2022-10-18T02:13:10.836Z,3.53
2022-10-18T02:15:43.601Z,0.70
2022-10-18T02:18:18.612Z,1.73
2022-10-18T02:20:45.716Z,1.33
2022-10-18T02:23:14.529Z,1.73
2022-10-18T02:25:41.043Z,0.95
2022-10-18T02:28:07.543Z,0.73
2022-10-18T02:31:00.355Z,1.98
2022-10-18T02:33:32.642Z,1.25
2022-10-18T02:36:13.243Z,2.83
2022-10-18T02:38:41.771Z,4.25
2022-10-18T02:41:08.425Z,4.78
2022-10-18T02:43:35.614Z,2.72
2022-10-18T02:46:02.775Z,2.58
2022-10-18T02:48:29.807Z,2.30
2022-10-18T02:50:56.308Z,1.23
2022-10-18T02:53:22.786Z,1.48
2022-10-18T02:55:49.258Z,1.75
2022-10-18T02:58:15.774Z,0.73
2022-10-18T03:00:42.264Z,2.13
2022-10-18T03:03:08.784Z,1.77
2022-10-18T03:05:35.234Z,3.47
2022-10-18T03:08:01.718Z,4.90
2022-10-18T03:10:28.191Z,3.08
2022-10-18T03:12:54.662Z,3.55
2022-10-18T03:15:21.114Z,4.65
2022-10-18T03:17:47.580Z,1.63
2022-10-18T03:20:14.127Z,2.13
2022-10-18T03:22:40.593Z,5.80
2022-10-18T03:25:07.209Z,2.13
2022-10-18T03:27:33.956Z,2.78
2022-10-18T03:30:01.082Z,2.83
2022-10-18T03:32:27.561Z,3.83
2022-10-18T03:34:54.057Z,4.03
2022-10-18T03:37:20.512Z,1.48
2022-10-18T03:39:47.019Z,6.85
2022-10-18T03:42:13.471Z,3.85
2022-10-18T03:44:40.009Z,2.80
2022-10-18T03:47:06.488Z,1.60
2022-10-18T03:52:00.357Z,2.42
2022-10-18T03:54:26.843Z,4.82
2022-10-18T03:56:53.317Z,2.97
2022-10-18T03:59:19.899Z,2.85
2022-10-18T04:01:46.410Z,2.65
2022-10-18T04:04:13.080Z,1.88
2022-10-18T04:06:39.561Z,2.42
2022-10-18T04:09:09.374Z,2.95
2022-10-18T04:11:36.807Z,1.38
2022-10-18T04:14:03.433Z,3.78
2022-10-18T04:16:29.977Z,2.35
2022-10-18T04:18:56.487Z,1.50
2022-10-18T04:21:22.951Z,6.15
2022-10-18T04:23:49.754Z,3.70
2022-10-18T04:26:16.800Z,2.55
2022-10-18T04:28:43.935Z,4.63
2022-10-18T04:31:11.235Z,2.97
2022-10-18T04:33:38.252Z,2.17
2022-10-18T04:36:05.009Z,5.35
2022-10-18T04:38:31.500Z,1.60
2022-10-18T04:40:58.007Z,3.25
2022-10-18T04:43:24.783Z,6.25
2022-10-18T04:45:51.328Z,1.27
2022-10-18T04:48:18.079Z,5.05
2022-10-18T04:50:44.635Z,1.33
2022-10-18T04:53:11.131Z,1.85
2022-10-18T04:55:37.595Z,1.65
2022-10-18T04:58:04.032Z,3.28
2022-10-18T05:00:30.539Z,1.20
2022-10-18T05:03:00.128Z,4.05
2022-10-18T05:05:43.241Z,2.78
2022-10-18T05:08:13.132Z,12.65
2022-10-18T05:10:39.653Z,5.88
2022-10-18T05:13:06.406Z,2.10
2022-10-18T05:15:32.987Z,2.72
2022-10-18T05:17:59.639Z,1.90
2022-10-18T05:20:26.119Z,4.93
2022-10-18T05:22:52.671Z,4.10
2022-10-18T05:25:19.468Z,2.22
2022-10-18T05:27:45.950Z,4.97
2022-10-18T05:30:12.499Z,5.13
2022-10-18T05:32:38.984Z,2.42
2022-10-18T05:35:05.723Z,2.58
2022-10-18T05:37:32.248Z,1.17
2022-10-18T05:39:58.769Z,5.38
2022-10-18T05:42:25.488Z,2.05
2022-10-18T05:44:52.083Z,7.53
2022-10-18T05:47:18.575Z,2.17
2022-10-18T05:49:45.066Z,2.38
2022-10-18T05:52:11.533Z,2.88
2022-10-18T05:54:38.097Z,2.40
2022-10-18T05:57:04.583Z,4.88
2022-10-18T05:59:31.081Z,4.15
2022-10-18T06:01:57.562Z,3.80
2022-10-18T06:04:24.072Z,4.80
2022-10-18T06:06:50.533Z,2.13
2022-10-18T06:09:17.008Z,4.22
2022-10-18T06:11:43.520Z,7.18
2022-10-18T06:14:09.982Z,6.40
2022-10-18T06:19:03.908Z,4.65
2022-10-18T06:21:30.512Z,3.35
2022-10-18T06:23:58.122Z,2.65
2022-10-18T06:26:25.382Z,4.50
2022-10-18T06:28:52.228Z,5.50
2022-10-18T06:31:21.362Z,5.65
2022-10-18T06:33:48.032Z,3.92
2022-10-18T06:36:15.492Z,3.22
2022-10-18T06:38:42.092Z,7.05
2022-10-18T06:41:09.122Z,2.58
2022-10-18T06:43:35.620Z,3.72
2022-10-18T06:46:06.852Z,4.10
2022-10-18T06:48:35.085Z,3.05
2022-10-18T06:51:03.069Z,2.17
2022-10-18T06:53:30.723Z,5.10
2022-10-18T06:56:15.476Z,3.58
2022-10-18T06:58:42.012Z,4.63
2022-10-18T07:01:09.918Z,6.95
2022-10-18T07:03:36.524Z,5.32
2022-10-18T07:06:04.632Z,5.03
2022-10-18T07:08:31.313Z,3.72
2022-10-18T07:10:58.002Z,6.50
2022-10-18T07:13:32.420Z,3.60
2022-10-18T07:16:12.770Z,5.13
2022-10-18T07:18:43.720Z,3.17
2022-10-18T07:21:11.555Z,5.75
2022-10-18T07:23:39.455Z,3.72
2022-10-18T07:26:32.350Z,4.30
2022-10-18T07:29:09.097Z,5.10
2022-10-18T07:31:36.016Z,6.63
2022-10-18T07:34:04.319Z,5.63
2022-10-18T07:36:30.791Z,7.25
2022-10-18T07:38:57.450Z,6.20
2022-10-18T07:41:23.931Z,4.43
2022-10-18T07:43:51.106Z,4.70
2022-10-18T07:46:18.011Z,10.15
2022-10-18T07:48:44.509Z,7.18
2022-10-18T07:51:11.080Z,5.15
2022-10-18T07:53:38.064Z,7.90
2022-10-18T07:56:09.843Z,7.43
2022-10-18T07:58:36.631Z,8.40
2022-10-18T08:01:06.465Z,8.57
2022-10-18T08:03:33.357Z,5.85
2022-10-18T08:05:59.929Z,10.45
2022-10-18T08:08:26.740Z,3.90
2022-10-18T08:10:53.227Z,15.77
2022-10-18T08:13:19.766Z,7.03
2022-10-18T08:15:46.575Z,7.07
2022-10-18T08:18:13.043Z,5.32
2022-10-18T08:20:43.670Z,10.50
2022-10-18T08:23:10.446Z,8.52
2022-10-18T08:28:08.454Z,7.75
2022-10-18T08:30:35.910Z,6.15
2022-10-18T08:33:02.735Z,7.25
2022-10-18T08:35:29.215Z,7.03
2022-10-18T08:37:55.654Z,5.00
2022-10-18T08:40:22.296Z,5.18
2022-10-18T08:42:58.324Z,5.68
2022-10-18T08:45:41.052Z,4.10
2022-10-18T08:48:17.049Z,7.45
2022-10-18T08:50:43.801Z,2.53
2022-10-18T08:53:16.733Z,5.72
2022-10-18T08:55:45.902Z,6.65
2022-10-18T08:58:33.421Z,6.97
2022-10-18T09:01:10.850Z,5.70
2022-10-18T09:03:43.618Z,6.90
2022-10-18T09:06:30.528Z,4.10
2022-10-18T09:09:09.291Z,3.35
2022-10-18T09:11:44.177Z,3.00
2022-10-18T09:14:10.604Z,3.25
2022-10-18T09:16:46.009Z,3.55
2022-10-18T09:19:18.519Z,4.22
2022-10-18T09:21:45.144Z,5.40
2022-10-18T09:24:13.510Z,6.07
2022-10-18T09:26:47.307Z,3.78
2022-10-18T09:29:16.727Z,7.75
2022-10-18T09:31:46.294Z,5.32
2022-10-18T09:34:18.827Z,4.82
2022-10-18T09:36:45.575Z,4.00
2022-10-18T09:39:16.486Z,8.43
2022-10-18T09:41:42.919Z,6.10
2022-10-18T09:44:14.211Z,5.18
2022-10-18T09:46:49.064Z,5.93
2022-10-18T09:49:18.584Z,5.97
2022-10-18T09:51:45.810Z,6.35
2022-10-18T09:54:24.277Z,5.13
2022-10-18T09:56:50.758Z,5.20
2022-10-18T09:59:27.640Z,5.07
2022-10-18T10:01:54.180Z,5.72
2022-10-18T10:04:20.643Z,4.25
2022-10-18T10:06:51.742Z,7.32
2022-10-18T10:09:21.368Z,6.70
2022-10-18T10:11:49.964Z,4.90
2022-10-18T10:14:24.219Z,5.43
2022-10-18T10:16:52.678Z,5.82
2022-10-18T10:19:20.565Z,4.50
2022-10-18T10:21:49.031Z,7.53
2022-10-18T10:24:27.443Z,4.22
2022-10-18T10:27:01.626Z,2.83
2022-10-18T10:29:59.518Z,4.53
2022-10-18T10:32:32.376Z,5.15
2022-10-18T10:34:58.900Z,5.18
2022-10-18T10:37:36.378Z,8.27
2022-10-18T10:40:18.384Z,8.55
2022-10-18T10:43:04.234Z,11.30
2022-10-18T10:45:58.437Z,5.55
2022-10-18T10:48:29.841Z,7.85
2022-10-18T10:53:34.346Z,9.52
2022-10-18T10:56:01.229Z,6.28
2022-10-18T10:58:29.550Z,7.25
2022-10-18T11:00:56.765Z,6.60
2022-10-18T11:03:31.218Z,5.55
2022-10-18T11:06:01.993Z,4.28
2022-10-18T11:08:33.155Z,10.32
2022-10-18T11:11:11.882Z,6.05
2022-10-18T11:14:25.262Z,19.85
2022-10-18T11:17:08.496Z,8.35
2022-10-18T11:19:37.893Z,9.52
2022-10-18T11:22:06.744Z,6.35
2022-10-18T11:24:34.830Z,7.45
2022-10-18T11:27:04.314Z,9.25
2022-10-18T11:29:43.138Z,11.23
2022-10-18T11:32:18.953Z,5.72
2022-10-18T11:35:00.438Z,8.57
2022-10-18T11:37:34.858Z,6.18
2022-10-18T11:40:04.833Z,9.80
2022-10-18T11:42:40.015Z,4.72
2022-10-18T11:45:22.935Z,6.32
2022-10-18T11:47:55.879Z,3.22
2022-10-18T11:50:26.740Z,11.23
2022-10-18T11:52:59.108Z,6.53
2022-10-18T11:55:32.086Z,8.10
2022-10-18T11:58:04.048Z,4.82
2022-10-18T12:00:52.263Z,4.55
2022-10-18T12:03:22.564Z,9.38
2022-10-18T12:05:49.722Z,6.65
2022-10-18T12:08:16.206Z,4.47
2022-10-18T12:11:06.611Z,12.10
2022-10-18T12:13:36.619Z,8.68
2022-10-18T12:16:04.152Z,8.60
2022-10-18T12:18:31.885Z,11.75
2022-10-18T12:20:59.121Z,8.40
2022-10-18T12:23:34.935Z,9.75
2022-10-18T12:26:02.845Z,5.65
2022-10-18T12:28:47.510Z,4.50
2022-10-18T12:31:30.121Z,7.47
2022-10-18T12:33:58.105Z,6.47
2022-10-18T12:36:24.602Z,12.15
2022-10-18T12:38:53.994Z,6.70
2022-10-18T12:41:25.591Z,7.88
2022-10-18T12:43:59.470Z,5.55
2022-10-18T12:46:42.241Z,11.73
2022-10-18T12:49:11.024Z,6.47
2022-10-18T12:51:44.753Z,5.40
2022-10-18T12:54:12.089Z,5.35
2022-10-18T12:56:42.572Z,7.03
2022-10-18T12:59:15.409Z,7.18
2022-10-18T13:02:05.164Z,6.95
2022-10-18T13:04:32.573Z,8.30
2022-10-18T13:07:05.052Z,7.32
2022-10-18T13:09:35.646Z,6.88
2022-10-18T13:12:11.397Z,7.18
2022-10-18T13:15:12.418Z,5.38
2022-10-18T13:17:47.238Z,6.65
2022-10-18T13:20:25.415Z,6.55
2022-10-18T13:22:58.832Z,6.45
2022-10-18T13:25:44.183Z,8.98
2022-10-18T13:28:29.935Z,6.28
2022-10-18T13:31:01.100Z,4.10
2022-10-18T13:33:28.456Z,8.13
2022-10-18T13:35:56.374Z,4.63
2022-10-18T13:38:38.360Z,5.53
2022-10-18T13:41:07.828Z,7.55
2022-10-18T13:43:52.984Z,6.32
2022-10-18T13:46:19.586Z,6.65
2022-10-18T13:48:50.339Z,11.38
2022-10-18T13:51:22.545Z,7.20
2022-10-18T13:54:12.026Z,6.35
2022-10-18T13:56:41.694Z,6.97
2022-10-18T13:59:27.034Z,4.03
2022-10-18T14:02:02.691Z,7.38
2022-10-18T14:04:38.776Z,4.60
2022-10-18T14:07:06.147Z,7.75
2022-10-18T14:09:56.082Z,4.22
2022-10-18T14:12:41.631Z,5.70
2022-10-18T14:15:16.166Z,6.10
2022-10-18T14:17:53.520Z,3.75
2022-10-18T14:20:20.236Z,4.97
2022-10-18T14:22:49.790Z,7.10
2022-10-18T14:25:38.536Z,7.95
2022-10-18T14:28:12.372Z,5.18
2022-10-18T14:30:52.799Z,8.23
2022-10-18T14:33:33.552Z,4.38
2022-10-18T14:36:20.267Z,6.25
2022-10-18T14:38:57.403Z,5.25
2022-10-18T14:41:24.143Z,3.08
2022-10-18T14:43:51.342Z,8.88
2022-10-18T14:46:19.559Z,6.35
2022-10-18T14:49:07.806Z,9.95
2022-10-18T14:51:36.344Z,49.67
2022-10-18T14:54:03.225Z,25.15
2022-10-18T14:56:30.994Z,13.05
2022-10-18T14:58:58.647Z,13.27
2022-10-18T15:01:27.826Z,28.38
2022-10-18T15:04:05.079Z,19.40
2022-10-18T15:06:32.608Z,79.75
2022-10-18T15:08:59.949Z,55.63
2022-10-18T15:11:27.371Z,30.65
2022-10-18T15:13:55.595Z,58.65
2022-10-18T15:16:24.495Z,17.60
2022-10-18T15:19:00.204Z,55.35
2022-10-18T15:21:26.888Z,40.17
2022-10-18T15:23:55.061Z,36.97
2022-10-18T15:26:23.640Z,44.03
2022-10-18T15:28:52.962Z,18.23
2022-10-18T15:31:24.352Z,12.05
2022-10-18T15:33:50.993Z,13.30
2022-10-18T15:36:22.016Z,7.85
2022-10-18T15:38:50.083Z,9.80
2022-10-18T15:41:35.578Z,9.23
2022-10-18T15:44:13.132Z,8.50
2022-10-18T15:46:40.775Z,9.10
2022-10-18T15:49:25.379Z,9.35
2022-10-18T15:52:15.130Z,7.28
2022-10-18T15:54:42.080Z,8.45
2022-10-18T15:57:10.257Z,8.80
2022-10-18T15:59:40.199Z,6.65
2022-10-18T16:02:13.952Z,4.50
2022-10-18T16:04:40.398Z,9.52
2022-10-18T16:07:06.951Z,3.78
2022-10-18T16:09:33.466Z,5.10
2022-10-18T16:12:00.024Z,8.90
2022-10-18T16:14:26.572Z,3.75
2022-10-18T16:16:55.356Z,7.65
2022-10-18T16:19:22.883Z,7.30
2022-10-18T16:21:50.002Z,6.70
2022-10-18T16:24:16.578Z,5.45
2022-10-18T16:26:43.168Z,6.40
2022-10-18T16:29:18.790Z,4.60
2022-10-18T16:31:46.814Z,4.45
2022-10-18T16:34:15.069Z,6.85
2022-10-18T16:36:41.663Z,3.30
2022-10-18T16:39:12.827Z,10.07
2022-10-18T16:41:39.308Z,5.43
2022-10-18T16:44:05.993Z,6.38
2022-10-18T16:46:33.465Z,11.45
2022-10-18T16:49:00.473Z,5.88
2022-10-18T16:51:27.195Z,7.07
2022-10-18T16:53:53.823Z,5.85
2022-10-18T16:56:23.388Z,5.90
2022-10-18T16:58:49.914Z,6.13
2022-10-18T17:01:19.632Z,5.68
2022-10-18T17:03:46.529Z,4.93
2022-10-18T17:06:15.306Z,6.63
2022-10-18T17:08:41.789Z,6.50
2022-10-18T17:11:09.640Z,3.63
2022-10-18T17:13:36.176Z,6.60
2022-10-18T17:16:03.901Z,3.47
2022-10-18T17:18:30.849Z,6.43
2022-10-18T17:20:59.381Z,6.28
2022-10-18T17:23:25.959Z,4.70
2022-10-18T17:26:05.442Z,5.70
2022-10-18T17:28:33.720Z,4.15
2022-10-18T17:31:00.248Z,6.35
2022-10-18T17:33:26.746Z,9.15
2022-10-18T17:35:53.218Z,4.40
2022-10-18T17:38:19.688Z,7.38
2022-10-18T17:40:46.145Z,4.20
2022-10-18T17:43:13.963Z,7.28
2022-10-18T17:45:51.202Z,8.35
2022-10-18T17:48:17.750Z,3.42
2022-10-18T17:50:44.393Z,9.45
2022-10-18T17:53:12.109Z,16.40
2022-10-18T17:55:39.053Z,6.80
2022-10-18T17:58:18.753Z,6.72
2022-10-18T18:00:46.914Z,4.95
2022-10-18T18:03:15.266Z,5.85
2022-10-18T18:05:41.768Z,6.55
2022-10-18T18:08:08.288Z,5.28
2022-10-18T18:10:35.410Z,6.35
2022-10-18T18:13:02.615Z,13.27
2022-10-18T18:15:29.196Z,4.88
2022-10-18T18:17:57.615Z,8.88
2022-10-18T18:20:24.801Z,7.68
2022-10-18T18:22:51.839Z,7.85
2022-10-18T18:25:18.442Z,13.95
2022-10-18T18:27:44.982Z,6.75
2022-10-18T18:30:11.693Z,9.52
2022-10-18T18:32:38.275Z,9.02
2022-10-18T18:35:05.026Z,6.32
2022-10-18T18:37:31.516Z,9.02
2022-10-18T18:39:57.987Z,6.93
2022-10-18T18:42:24.590Z,11.80
2022-10-18T18:44:51.074Z,4.68
2022-10-18T18:47:21.705Z,8.38
2022-10-18T18:49:48.623Z,12.32
2022-10-18T18:52:15.211Z,5.60
2022-10-18T18:54:41.683Z,6.32
2022-10-18T18:57:08.197Z,10.52
2022-10-18T18:59:34.729Z,13.02
2022-10-18T19:02:01.201Z,6.43
2022-10-18T19:04:29.105Z,16.23
2022-10-18T19:06:55.902Z,5.78
2022-10-18T19:09:23.013Z,6.32
2022-10-18T19:11:50.832Z,13.32
2022-10-18T19:14:17.660Z,20.20
2022-10-18T19:16:49.096Z,20.75
2022-10-18T19:19:26.835Z,14.25
2022-10-18T19:21:55.252Z,8.13
2022-10-18T19:24:22.588Z,13.50
2022-10-18T19:26:51.066Z,8.60
2022-10-18T19:29:20.805Z,7.50
2022-10-18T19:31:47.477Z,10.95
2022-10-18T19:34:14.867Z,7.30
2022-10-18T19:36:42.605Z,25.67
2022-10-18T19:39:11.948Z,6.55
2022-10-18T19:41:38.544Z,9.55
2022-10-18T19:44:05.235Z,8.23
2022-10-18T19:46:31.700Z,16.25
2022-10-18T19:48:58.727Z,6.10
2022-10-18T19:51:27.842Z,9.07
2022-10-18T19:53:55.134Z,8.15
2022-10-18T19:56:23.335Z,8.10
2022-10-18T19:58:50.526Z,5.22
2022-10-18T20:01:17.384Z,4.57
2022-10-18T20:03:44.611Z,5.25
2022-10-18T20:06:11.298Z,7.15
2022-10-18T20:08:38.190Z,8.02
2022-10-18T20:11:06.010Z,8.48
2022-10-18T20:13:32.888Z,11.27
2022-10-18T20:15:59.339Z,5.82
2022-10-18T20:18:25.904Z,10.80
2022-10-18T20:20:52.558Z,11.55
2022-10-18T20:23:19.498Z,5.50
2022-10-18T20:26:09.239Z,17.05
2022-10-18T20:28:37.149Z,9.15
2022-10-18T20:31:05.316Z,10.68
2022-10-18T20:33:31.987Z,7.15
2022-10-18T20:36:02.319Z,4.18
2022-10-18T20:38:30.183Z,7.53
2022-10-18T20:40:56.664Z,8.40
2022-10-18T20:43:23.115Z,18.30
2022-10-18T20:45:56.040Z,13.60
2022-10-18T20:48:22.550Z,44.47
2022-10-18T20:50:49.025Z,23.33
2022-10-18T20:53:15.507Z,16.45
2022-10-18T20:55:42.904Z,14.73
2022-10-18T20:58:09.816Z,9.85
2022-10-18T21:00:36.352Z,11.55
2022-10-18T21:03:03.017Z,7.38
2022-10-18T21:05:30.371Z,4.65
2022-10-18T21:07:57.305Z,6.78
2022-10-18T21:10:24.164Z,7.63
2022-10-18T21:12:50.622Z,8.98
2022-10-18T21:15:17.211Z,8.45
2022-10-18T21:17:43.651Z,9.50
2022-10-18T21:20:10.480Z,6.95
2022-10-18T21:22:37.006Z,8.98
2022-10-18T21:25:03.636Z,12.80
2022-10-18T21:27:30.198Z,8.93
2022-10-18T21:29:56.748Z,6.13
2022-10-18T21:32:23.266Z,7.95
2022-10-18T21:34:49.704Z,6.32
2022-10-18T21:37:16.238Z,8.95
2022-10-18T21:39:42.822Z,6.38
2022-10-18T21:42:09.285Z,5.93
2022-10-18T21:44:36.970Z,5.75
2022-10-18T21:47:03.460Z,9.52
2022-10-18T21:49:30.374Z,6.65
2022-10-18T21:51:56.916Z,5.68
2022-10-18T21:54:23.392Z,6.25
2022-10-18T21:56:51.173Z,5.22
2022-10-18T21:59:17.680Z,7.10
2022-10-18T22:01:45.172Z,3.65
2022-10-18T22:04:24.921Z,5.82
2022-10-18T22:06:52.163Z,10.18
2022-10-18T22:09:19.301Z,4.32
2022-10-18T22:11:47.476Z,9.00
2022-10-18T22:14:14.007Z,5.75
2022-10-18T22:16:40.506Z,6.28
2022-10-18T22:19:07.307Z,7.30
2022-10-18T22:21:34.224Z,8.82
2022-10-18T22:24:03.755Z,4.53
2022-10-18T22:26:32.534Z,7.25
2022-10-18T22:29:00.110Z,9.75
2022-10-18T22:31:27.877Z,5.90
2022-10-18T22:33:58.589Z,5.47
2022-10-18T22:36:25.162Z,6.65
2022-10-18T22:38:52.090Z,8.63
2022-10-18T22:41:18.662Z,4.55
2022-10-18T22:43:45.560Z,3.85
2022-10-18T22:46:12.968Z,5.82
2022-10-18T22:48:39.753Z,6.10
2022-10-18T22:51:06.650Z,8.77
2022-10-18T22:53:33.678Z,7.40
2022-10-18T22:56:00.178Z,6.43
2022-10-18T22:58:26.681Z,7.93
2022-10-18T23:00:59.914Z,11.35
2022-10-18T23:03:26.439Z,5.60
2022-10-18T23:05:52.879Z,6.47
2022-10-18T23:08:19.343Z,6.63
2022-10-18T23:10:45.790Z,8.48
2022-10-18T23:13:12.255Z,5.03
2022-10-18T23:15:41.594Z,8.20
2022-10-18T23:18:08.075Z,8.25
2022-10-18T23:20:34.550Z,11.40
2022-10-18T23:23:01.065Z,7.93
2022-10-18T23:25:27.647Z,9.07
2022-10-18T23:27:54.366Z,9.13
2022-10-18T23:30:21.050Z,6.05
2022-10-18T23:32:47.498Z,7.20
2022-10-18T23:35:13.929Z,7.03
2022-10-18T23:37:40.424Z,7.30
2022-10-18T23:40:07.335Z,7.28
2022-10-18T23:42:34.273Z,9.38
2022-10-18T23:45:00.730Z,3.50
2022-10-18T23:47:27.171Z,6.65
2022-10-18T23:49:55.705Z,4.93
2022-10-18T23:52:22.224Z,6.00
2022-10-18T23:54:48.690Z,9.38
2022-10-18T23:57:15.154Z,6.43
2022-10-18T23:59:41.633Z,4.68
